Guatemala City, Guatemala
Current Conditions -  °F | °C
As of 11:00 AM on Sunday 23 Nov 2014 (Local Time) from MGGT Reporting Station
Few Clouds Few Clouds  
Wind Chill: 77°   Ceiling: Unl
Heat Index: 79°   Visibility: 6mi
Dew Point: 61°   Wind: 3mph
Humidity: 57%   Direction: NA
Pressure: 30.24"   Gusts: NA
Location:  14.58°N, 90.52°W
Report Text: MGGT 231700Z VRB03KT 9999 FEW018 25/16 Q1024 A3024 FEW200
Loading
Personal Weather Stations






























Interactive Weather Map New forecast layout! Learn more

10-Day Weather Forecast

Advertisements
Track Severe Weather on mobile